glimmersoft.com alexa rank chart, glimmersoft.com alexa rank daily changes

glimmersoft.com alexa rank chart, glimmersoft.com alexa rank daily changes

glimmersoft.com
Actual rank:
690 299

RANK HISTORY

Date Rank Diff
2017/12/13 690 299 +26 201
2017/12/12 664 098 +7 114
2017/12/11 656 984 -47 836
2017/12/10 704 820 -4 803
2017/12/09 709 623 +7 106
2017/12/08 702 517 +4 752
2017/12/07 697 765 +30 944
2017/12/06 666 821 -1 391
2017/12/05 668 212 +5 847
2017/12/04 662 365 -6 614
2017/12/03 668 979 -9 185
2017/12/02 678 164 +20 295
2017/12/01 657 869 +50 401
2017/11/30 607 468 +21 922
2017/11/29 585 546 -13 785
2017/11/28 599 331 +8 472
2017/11/27 590 859 +1 296
2017/11/26 589 563 +134
2017/11/25 589 429 +6 006
2017/11/24 583 423 +98 093
2017/11/23 485 330 -2 066
2017/11/22 487 396 -451
2017/11/21 487 847 -13 815
2017/11/20 501 662 -12 696
2017/11/19 514 358 +5 593
2017/11/18 508 765 -8 311
2017/11/17 517 076 -2 101
2017/11/16 519 177 +4 030
2017/11/15 515 147 -8 267
2017/11/14 523 414 +22 777
2017/11/13 500 637 -8 359
2017/11/12 508 996 -1 480
2017/11/11 510 476 -10 448
2017/11/10 520 924 +1 721
2017/11/09 519 203 +28 287
2017/11/08 490 916 +8 898
2017/11/07 482 018 -5 172
2017/11/06 487 190 -626
2017/11/05 487 816 +3 450
2017/11/04 484 366 +805
2017/11/03 483 561 +14 317
2017/11/02 469 244 +7 247
2017/11/01 461 997 -7 848
2017/10/31 469 845 -86 741
2017/10/30 556 586 +9 913
2017/10/29 546 673 +25 927
2017/10/28 520 746 +6 266
2017/10/27 514 480 +9 862
2017/10/26 504 618 +31 746
2017/10/25 472 872 +2 561
2017/10/24 470 311 -27 043
2017/10/23 497 354 -3 922
2017/10/22 501 276 +23 661
2017/10/21 477 615 -4 166
2017/10/20 481 781 +17 486
2017/10/19 464 295 +49 698
2017/10/18 414 597 +10 165
2017/10/17 404 432 +17 445
2017/10/16 386 987 +26 447
2017/10/14 360 540

WIDGET FOR YOUR SITE

DOMAINS WITH THE NEAREST RANK

Domain Rank
alimentacionynutricion.org 690 294
je-renove-gouv.org 690 295
ekoya.fr 690 296
isokineticsinc.com 690 297
your-sex-partner.com 690 298
glimmersoft.com 690 299
1dg.me 690 300
mineko.de 690 301
senmiaoliuxue.com 690 302
belfortfurniture.com 690 303
gluckspilze.com 690 304

DOMAINS WITH THE NEAREST RANK BY TLD .com

Domain Rank
hsc.com 690 290
ikaduchi.com 690 292
lastucase.com 690 293
isokineticsinc.com 690 297
your-sex-partner.com 690 298
glimmersoft.com 690 299
senmiaoliuxue.com 690 302
belfortfurniture.com 690 303
gluckspilze.com 690 304
i8857.com 690 307
exprtmb.com 690 308